createdAt,value
2023-01-26T00:00:18.070Z,42.30
2023-01-26T00:02:46.392Z,44.80
2023-01-26T00:05:14.739Z,40.20
2023-01-26T00:07:45.701Z,39.80
2023-01-26T00:10:15.414Z,38.40
2023-01-26T00:12:44.157Z,38.00
2023-01-26T00:15:12.772Z,35.40
2023-01-26T00:17:41.743Z,36.30
2023-01-26T00:20:11.346Z,36.70
2023-01-26T00:22:40.171Z,35.20
2023-01-26T00:25:11.545Z,35.30
2023-01-26T00:27:39.916Z,32.10
2023-01-26T00:30:09.527Z,36.20
2023-01-26T00:32:39.237Z,36.20
2023-01-26T00:35:08.279Z,35.80
2023-01-26T00:37:38.084Z,35.50
2023-01-26T00:40:10.750Z,33.60
2023-01-26T00:42:40.100Z,32.50
2023-01-26T00:45:09.320Z,35.00
2023-01-26T00:47:37.768Z,31.50
2023-01-26T00:50:06.850Z,33.10
2023-01-26T00:52:35.356Z,30.30
2023-01-26T00:55:03.920Z,30.00
2023-01-26T00:57:32.649Z,30.90
2023-01-26T01:00:01.075Z,31.10
2023-01-26T01:02:29.866Z,31.10
2023-01-26T01:04:58.497Z,32.20
2023-01-26T01:07:29.280Z,31.90
2023-01-26T01:09:58.269Z,34.50
2023-01-26T01:12:28.077Z,30.00
2023-01-26T01:14:57.602Z,33.20
2023-01-26T01:17:26.223Z,32.20
2023-01-26T01:19:54.559Z,31.70
2023-01-26T01:22:23.478Z,34.70
2023-01-26T01:24:51.895Z,35.70
2023-01-26T01:27:20.292Z,39.70
2023-01-26T01:29:50.926Z,36.90
2023-01-26T01:32:20.234Z,35.90
2023-01-26T01:34:49.049Z,37.30
2023-01-26T01:37:17.783Z,35.30
2023-01-26T01:39:46.484Z,35.60
2023-01-26T01:42:15.218Z,34.60
2023-01-26T01:44:43.941Z,34.60
2023-01-26T01:47:17.282Z,34.10
2023-01-26T01:49:47.994Z,33.70
2023-01-26T01:55:15.935Z,34.80
2023-01-26T01:57:51.892Z,31.30
2023-01-26T02:00:22.718Z,33.50
2023-01-26T02:03:13.841Z,31.50
2023-01-26T02:05:56.252Z,35.40
2023-01-26T02:08:31.637Z,33.50
2023-01-26T02:11:01.840Z,33.00
2023-01-26T02:13:31.990Z,36.50
2023-01-26T02:16:04.211Z,37.20
2023-01-26T02:18:32.992Z,36.80
2023-01-26T02:21:09.369Z,40.20
2023-01-26T02:24:02.891Z,36.30
2023-01-26T02:26:33.675Z,40.90
2023-01-26T02:29:05.062Z,38.10
2023-01-26T02:31:34.754Z,38.50
2023-01-26T02:34:03.073Z,34.30
2023-01-26T02:36:32.499Z,33.70
2023-01-26T02:39:19.827Z,33.20
2023-01-26T02:42:08.523Z,30.80
2023-01-26T02:44:38.975Z,31.40
2023-01-26T02:47:17.756Z,30.10
2023-01-26T02:49:47.234Z,26.90
2023-01-26T02:52:20.496Z,27.40
2023-01-26T02:55:14.273Z,28.60
2023-01-26T02:57:43.016Z,23.60
2023-01-26T03:00:17.250Z,28.20
2023-01-26T03:02:46.307Z,30.30
2023-01-26T03:05:14.829Z,33.70
2023-01-26T03:07:44.217Z,38.20
2023-01-26T03:10:13.512Z,30.70
2023-01-26T03:12:42.880Z,30.70
2023-01-26T03:15:31.690Z,32.50
2023-01-26T03:18:27.306Z,34.00
2023-01-26T03:21:14.442Z,36.20
2023-01-26T03:24:02.419Z,29.90
2023-01-26T03:26:50.206Z,30.90
2023-01-26T03:29:19.855Z,32.90
2023-01-26T03:31:48.578Z,31.10
2023-01-26T03:34:17.078Z,28.80
2023-01-26T03:36:47.452Z,31.90
2023-01-26T03:39:35.051Z,28.70
2023-01-26T03:42:23.967Z,28.00
2023-01-26T03:45:11.035Z,30.30
2023-01-26T03:47:59.528Z,29.10
2023-01-26T03:50:47.184Z,28.10
2023-01-26T03:53:37.269Z,30.80
2023-01-26T03:56:18.569Z,25.70
2023-01-26T03:58:52.692Z,27.90
2023-01-26T04:01:28.337Z,27.20
2023-01-26T04:04:19.387Z,27.50
2023-01-26T04:07:08.354Z,27.20
2023-01-26T04:09:39.863Z,24.70
2023-01-26T04:12:10.529Z,27.20
2023-01-26T04:15:05.623Z,29.30
2023-01-26T04:17:53.089Z,29.10
2023-01-26T04:20:40.301Z,32.50
2023-01-26T04:23:18.100Z,31.80
2023-01-26T04:25:48.006Z,35.20
2023-01-26T04:28:16.590Z,30.80
2023-01-26T04:30:45.839Z,31.10
2023-01-26T04:33:14.605Z,30.90
2023-01-26T04:35:42.972Z,28.60
2023-01-26T04:38:11.676Z,27.90
2023-01-26T04:40:43.043Z,28.80
2023-01-26T04:43:12.642Z,31.20
2023-01-26T04:45:41.163Z,28.90
2023-01-26T04:48:09.592Z,29.50
2023-01-26T04:50:38.368Z,31.70
2023-01-26T04:53:06.831Z,31.50
2023-01-26T04:55:35.637Z,32.50
2023-01-26T04:58:04.092Z,28.80
2023-01-26T05:00:33.451Z,32.80
2023-01-26T05:03:05.484Z,33.80
2023-01-26T05:05:38.487Z,34.60
2023-01-26T05:08:07.189Z,34.50
2023-01-26T05:10:36.522Z,38.30
2023-01-26T05:13:28.205Z,38.20
2023-01-26T05:16:17.528Z,36.30
2023-01-26T05:19:09.095Z,36.90
2023-01-26T05:21:52.291Z,47.90
2023-01-26T05:24:21.018Z,38.00
2023-01-26T05:27:21.683Z,35.10
2023-01-26T05:30:00.612Z,33.10
2023-01-26T05:32:30.915Z,32.40
2023-01-26T05:34:59.521Z,31.30
2023-01-26T05:37:28.363Z,31.90
2023-01-26T05:39:58.205Z,33.10
2023-01-26T05:42:27.938Z,30.00
2023-01-26T05:45:32.005Z,31.80
2023-01-26T05:48:02.793Z,31.10
2023-01-26T05:50:31.527Z,31.20
2023-01-26T05:53:15.487Z,33.00
2023-01-26T05:55:44.083Z,31.50
2023-01-26T05:58:13.031Z,31.20
2023-01-26T06:00:41.944Z,31.20
2023-01-26T06:03:13.987Z,31.40
2023-01-26T06:05:43.050Z,27.40
2023-01-26T06:08:23.808Z,29.00
2023-01-26T06:11:21.859Z,29.00
2023-01-26T06:14:10.659Z,28.00
2023-01-26T06:16:39.819Z,30.40
2023-01-26T06:19:12.207Z,32.80
2023-01-26T06:21:41.862Z,34.10
2023-01-26T06:24:10.447Z,32.80
2023-01-26T06:26:39.462Z,31.00
2023-01-26T06:29:09.239Z,28.70
2023-01-26T06:31:38.048Z,26.50
2023-01-26T06:34:08.144Z,27.40
2023-01-26T06:36:41.686Z,30.40
2023-01-26T06:39:14.481Z,28.60
2023-01-26T06:41:44.267Z,26.00
2023-01-26T06:44:14.264Z,29.30
2023-01-26T06:46:43.013Z,29.40
2023-01-26T06:49:11.563Z,30.20
2023-01-26T06:52:12.832Z,31.00
2023-01-26T06:54:51.210Z,33.20
2023-01-26T06:57:42.871Z,29.20
2023-01-26T07:00:26.031Z,28.90
2023-01-26T07:02:57.027Z,32.70
2023-01-26T07:05:25.727Z,35.30
2023-01-26T07:07:57.167Z,33.10
2023-01-26T07:10:25.531Z,33.90
2023-01-26T07:12:53.951Z,37.90
2023-01-26T07:15:22.672Z,35.80
2023-01-26T07:17:51.690Z,36.80
2023-01-26T07:20:20.170Z,39.80
2023-01-26T07:22:48.726Z,39.80
2023-01-26T07:25:17.866Z,39.80
2023-01-26T07:27:46.779Z,42.40
2023-01-26T07:30:16.123Z,40.80
2023-01-26T07:32:45.717Z,37.60
2023-01-26T07:35:14.574Z,40.50
2023-01-26T07:37:42.963Z,39.00
2023-01-26T07:40:12.628Z,41.30
2023-01-26T07:42:42.887Z,39.50
2023-01-26T07:45:21.768Z,38.60
2023-01-26T07:47:50.823Z,43.20
2023-01-26T07:50:21.274Z,46.90
2023-01-26T07:52:49.829Z,44.00
2023-01-26T07:55:21.621Z,44.30
2023-01-26T07:57:50.458Z,43.70
2023-01-26T08:00:19.867Z,41.90
2023-01-26T08:02:51.825Z,44.10
2023-01-26T08:05:20.814Z,41.70
2023-01-26T08:07:49.390Z,40.60
2023-01-26T08:10:18.470Z,40.00
2023-01-26T08:12:46.911Z,48.10
2023-01-26T08:15:15.581Z,47.10
2023-01-26T08:17:44.345Z,46.70
2023-01-26T08:20:14.399Z,46.30
2023-01-26T08:22:43.020Z,48.60
2023-01-26T08:25:11.508Z,46.50
2023-01-26T08:27:39.912Z,50.50
2023-01-26T08:30:09.881Z,47.10
2023-01-26T08:32:38.964Z,46.60
2023-01-26T08:35:07.803Z,46.10
2023-01-26T08:37:36.444Z,43.40
2023-01-26T08:40:05.464Z,46.70
2023-01-26T08:42:35.202Z,47.00
2023-01-26T08:45:04.003Z,44.60
2023-01-26T08:47:34.293Z,47.90
2023-01-26T08:50:02.828Z,43.00
2023-01-26T08:52:33.478Z,44.80
2023-01-26T08:55:03.494Z,44.50
2023-01-26T08:57:32.897Z,45.10
2023-01-26T09:00:01.409Z,43.60
2023-01-26T09:02:30.427Z,43.90
2023-01-26T09:04:59.071Z,43.10
2023-01-26T09:07:27.769Z,45.10
2023-01-26T09:09:56.622Z,45.60
2023-01-26T09:12:25.321Z,44.60
2023-01-26T09:14:53.742Z,45.50
2023-01-26T09:17:34.918Z,45.10
2023-01-26T09:20:09.147Z,50.70
2023-01-26T09:22:38.010Z,48.70
2023-01-26T09:25:07.071Z,47.30
2023-01-26T09:27:35.706Z,48.50
2023-01-26T09:30:05.424Z,49.70
2023-01-26T09:32:34.124Z,49.40
2023-01-26T09:35:02.896Z,49.70
2023-01-26T09:37:31.683Z,49.60
2023-01-26T09:40:00.071Z,50.80
2023-01-26T09:42:55.177Z,50.20
2023-01-26T09:45:34.021Z,52.40
2023-01-26T09:48:14.692Z,50.00
2023-01-26T09:50:57.125Z,47.90
2023-01-26T09:53:31.315Z,49.40
2023-01-26T09:56:00.419Z,44.80
2023-01-26T09:58:34.539Z,45.20
2023-01-26T10:01:03.201Z,45.30
2023-01-26T10:03:41.888Z,50.40
2023-01-26T10:06:21.978Z,48.60
2023-01-26T10:09:26.914Z,47.50
2023-01-26T10:11:58.529Z,45.80
2023-01-26T10:14:37.606Z,46.80
2023-01-26T10:17:06.619Z,41.00
2023-01-26T10:19:39.793Z,38.00
2023-01-26T10:22:37.567Z,36.50
2023-01-26T10:25:46.526Z,38.30
2023-01-26T10:28:16.636Z,37.40
2023-01-26T10:30:46.919Z,37.60
2023-01-26T10:33:31.190Z,39.50
2023-01-26T10:36:01.292Z,37.30
2023-01-26T10:38:33.497Z,41.90
2023-01-26T10:41:03.734Z,36.50
2023-01-26T10:43:36.548Z,37.40
2023-01-26T10:46:05.645Z,37.50
2023-01-26T10:48:34.693Z,34.20
2023-01-26T10:51:27.850Z,36.80
2023-01-26T10:54:21.617Z,38.90
2023-01-26T10:56:55.624Z,35.60
2023-01-26T10:59:27.454Z,38.40
2023-01-26T11:02:14.718Z,35.60
2023-01-26T11:05:04.205Z,34.30
2023-01-26T11:07:38.904Z,32.70
2023-01-26T11:10:39.924Z,35.70
2023-01-26T11:13:20.534Z,33.60
2023-01-26T11:15:51.290Z,31.00
2023-01-26T11:18:24.167Z,35.10
2023-01-26T11:21:17.208Z,32.00
2023-01-26T11:23:51.699Z,31.40
2023-01-26T11:26:27.024Z,35.00
2023-01-26T11:29:10.539Z,34.00
2023-01-26T11:31:46.269Z,34.90
2023-01-26T11:34:52.752Z,35.80
2023-01-26T11:38:09.778Z,35.50
2023-01-26T11:40:44.882Z,33.60
2023-01-26T11:43:50.379Z,33.40
2023-01-26T11:46:38.942Z,32.50
2023-01-26T11:49:34.080Z,31.00
2023-01-26T11:52:39.559Z,33.80
2023-01-26T11:55:26.750Z,28.70
2023-01-26T11:58:01.854Z,25.80
2023-01-26T12:00:42.018Z,20.30
2023-01-26T12:03:28.281Z,27.90
2023-01-26T12:06:03.093Z,20.80
2023-01-26T12:09:11.986Z,24.80
2023-01-26T12:11:49.221Z,25.80
2023-01-26T12:14:45.283Z,29.10
2023-01-26T12:17:29.055Z,27.20
2023-01-26T12:20:04.908Z,30.30
2023-01-26T12:22:42.030Z,27.90
2023-01-26T12:25:37.638Z,26.40
2023-01-26T12:28:20.293Z,18.40
2023-01-26T12:31:01.393Z,19.50
2023-01-26T12:33:34.330Z,20.10
2023-01-26T12:36:28.008Z,23.30
2023-01-26T12:41:56.381Z,19.30
2023-01-26T12:44:37.211Z,19.00
2023-01-26T12:47:27.347Z,19.50
2023-01-26T12:50:44.106Z,18.50
2023-01-26T12:53:30.407Z,16.90
2023-01-26T12:56:05.002Z,21.40
2023-01-26T12:58:35.879Z,20.80
2023-01-26T13:01:08.984Z,20.30
2023-01-26T13:03:44.804Z,18.00
2023-01-26T13:06:13.459Z,17.00
2023-01-26T13:08:53.793Z,16.20
2023-01-26T13:11:52.708Z,17.20
2023-01-26T13:14:24.237Z,17.20
2023-01-26T13:16:52.795Z,16.30
2023-01-26T13:19:43.506Z,16.60
2023-01-26T13:22:24.379Z,13.90
2023-01-26T13:24:56.873Z,18.00
2023-01-26T13:27:41.342Z,18.40
2023-01-26T13:30:53.877Z,14.30
2023-01-26T13:33:26.232Z,16.60
2023-01-26T13:35:54.916Z,16.10
2023-01-26T13:38:37.527Z,33.40
2023-01-26T13:41:24.344Z,23.40
2023-01-26T13:44:10.723Z,21.40
2023-01-26T13:46:41.081Z,19.20
2023-01-26T13:49:42.572Z,18.40
2023-01-26T13:52:28.336Z,16.90
2023-01-26T13:55:02.294Z,18.10
2023-01-26T13:57:31.780Z,19.20
2023-01-26T14:00:01.311Z,20.60
2023-01-26T14:02:36.332Z,19.20
2023-01-26T14:05:05.088Z,21.60
2023-01-26T14:07:43.874Z,20.70
2023-01-26T14:10:19.624Z,20.40
2023-01-26T14:12:52.799Z,21.60
2023-01-26T14:15:29.447Z,20.00
2023-01-26T14:18:03.029Z,20.80
2023-01-26T14:20:35.285Z,22.00
2023-01-26T14:23:07.981Z,21.00
2023-01-26T14:25:37.613Z,19.50
2023-01-26T14:28:05.962Z,24.00
2023-01-26T14:30:35.623Z,26.70
2023-01-26T14:33:04.588Z,27.40
2023-01-26T14:35:33.100Z,31.20
2023-01-26T14:38:13.103Z,27.60
2023-01-26T14:40:46.580Z,25.30
2023-01-26T14:43:15.028Z,26.40
2023-01-26T14:45:56.294Z,26.10
2023-01-26T14:48:28.377Z,25.50
2023-01-26T14:50:57.578Z,25.70
2023-01-26T14:53:26.122Z,27.90
2023-01-26T14:55:55.156Z,25.50
2023-01-26T14:58:33.058Z,25.70
2023-01-26T15:01:01.960Z,24.80
2023-01-26T15:03:34.484Z,27.60
2023-01-26T15:06:15.598Z,24.20
2023-01-26T15:08:59.901Z,23.80
2023-01-26T15:11:57.565Z,25.50
2023-01-26T15:14:39.184Z,23.10
2023-01-26T15:17:07.888Z,24.30
2023-01-26T15:19:41.769Z,26.90
2023-01-26T15:25:02.792Z,36.60
2023-01-26T15:27:33.304Z,39.30
2023-01-26T15:30:02.361Z,50.40
2023-01-26T15:32:33.521Z,56.30
2023-01-26T15:35:25.972Z,50.60
2023-01-26T15:38:01.780Z,42.30
2023-01-26T15:40:47.719Z,34.70
2023-01-26T15:43:28.718Z,43.20
2023-01-26T15:46:01.480Z,58.40
2023-01-26T15:48:32.007Z,52.80
2023-01-26T15:51:00.489Z,44.40
2023-01-26T15:53:29.263Z,44.00
2023-01-26T15:56:01.022Z,47.40
2023-01-26T15:58:31.862Z,39.80
2023-01-26T16:01:00.726Z,32.70
2023-01-26T16:03:29.673Z,35.60
2023-01-26T16:05:58.140Z,40.30
2023-01-26T16:08:26.647Z,38.10
2023-01-26T16:10:57.034Z,40.50
2023-01-26T16:13:25.779Z,41.90
2023-01-26T16:15:54.438Z,44.60
2023-01-26T16:18:22.894Z,43.40
2023-01-26T16:20:51.161Z,44.10
2023-01-26T16:23:20.712Z,45.70
2023-01-26T16:25:51.471Z,42.70
2023-01-26T16:28:20.083Z,40.90
2023-01-26T16:30:50.388Z,39.90
2023-01-26T16:33:22.029Z,39.20
2023-01-26T16:35:50.294Z,39.10
2023-01-26T16:38:19.365Z,40.00
2023-01-26T16:40:48.291Z,43.10
2023-01-26T16:43:23.796Z,42.50
2023-01-26T16:45:53.003Z,41.70
2023-01-26T16:48:21.997Z,43.10
2023-01-26T16:50:52.232Z,47.80
2023-01-26T16:53:29.199Z,47.90
2023-01-26T16:55:57.599Z,48.20
2023-01-26T16:58:26.828Z,50.30
2023-01-26T17:00:55.631Z,50.60
2023-01-26T17:03:24.296Z,54.60
2023-01-26T17:05:55.147Z,51.60
2023-01-26T17:08:23.686Z,55.00
2023-01-26T17:11:02.078Z,58.70
2023-01-26T17:13:32.902Z,55.30
2023-01-26T17:16:01.751Z,60.00
2023-01-26T17:18:33.676Z,65.30
2023-01-26T17:21:03.859Z,61.40
2023-01-26T17:23:34.611Z,60.70
2023-01-26T17:26:03.934Z,59.60
2023-01-26T17:28:35.081Z,63.90
2023-01-26T17:31:11.004Z,65.30
2023-01-26T17:33:40.240Z,66.80
2023-01-26T17:36:09.183Z,62.40
2023-01-26T17:38:39.209Z,63.90
2023-01-26T17:41:08.242Z,64.30
2023-01-26T17:43:38.467Z,79.30
2023-01-26T17:46:14.020Z,77.40
2023-01-26T17:48:45.303Z,72.30
2023-01-26T17:51:19.083Z,73.50
2023-01-26T17:53:49.814Z,69.70
2023-01-26T17:56:20.077Z,74.00
2023-01-26T17:58:53.498Z,62.60
2023-01-26T18:01:23.218Z,68.00
2023-01-26T18:03:53.770Z,68.10
2023-01-26T18:06:22.474Z,66.90
2023-01-26T18:08:52.103Z,69.90
2023-01-26T18:11:20.678Z,73.00
2023-01-26T18:13:49.478Z,67.90
2023-01-26T18:16:20.094Z,59.00
2023-01-26T18:18:48.956Z,55.90
2023-01-26T18:21:22.836Z,51.70
2023-01-26T18:23:52.749Z,43.50
2023-01-26T18:26:24.972Z,41.50
2023-01-26T18:28:53.428Z,43.60
2023-01-26T18:31:27.262Z,45.50
2023-01-26T18:33:59.308Z,47.60
2023-01-26T18:36:27.999Z,50.90
2023-01-26T18:39:01.512Z,49.20
2023-01-26T18:41:31.336Z,53.70
2023-01-26T18:44:00.510Z,47.80
2023-01-26T18:46:31.170Z,49.00
2023-01-26T18:49:01.153Z,54.50
2023-01-26T18:51:31.157Z,49.20
2023-01-26T18:53:59.581Z,56.80
2023-01-26T18:56:28.839Z,56.20
2023-01-26T18:58:57.770Z,66.90
2023-01-26T19:01:26.470Z,55.80
2023-01-26T19:03:55.913Z,57.10
2023-01-26T19:06:25.798Z,63.30
2023-01-26T19:08:59.502Z,56.30
2023-01-26T19:11:31.286Z,64.70
2023-01-26T19:13:59.985Z,66.70
2023-01-26T19:16:29.262Z,74.30
2023-01-26T19:18:57.982Z,77.40
2023-01-26T19:21:28.216Z,64.00
2023-01-26T19:23:58.812Z,65.00
2023-01-26T19:26:30.965Z,61.10
2023-01-26T19:29:01.989Z,57.60
2023-01-26T19:31:32.337Z,55.10
2023-01-26T19:34:02.754Z,51.00
2023-01-26T19:36:32.799Z,52.90
2023-01-26T19:39:04.803Z,58.00
2023-01-26T19:41:34.843Z,53.00
2023-01-26T19:44:03.335Z,49.40
2023-01-26T19:46:32.154Z,45.60
2023-01-26T19:49:00.687Z,48.50
2023-01-26T19:51:30.126Z,54.10
2023-01-26T19:54:02.390Z,54.20
2023-01-26T19:56:32.600Z,54.20
2023-01-26T19:59:04.028Z,49.60
2023-01-26T20:01:33.651Z,40.30
2023-01-26T20:04:04.271Z,39.20
2023-01-26T20:06:36.870Z,38.70
2023-01-26T20:09:06.313Z,35.90
2023-01-26T20:11:35.215Z,34.70
2023-01-26T20:14:09.054Z,35.50
2023-01-26T20:16:38.186Z,35.10
2023-01-26T20:19:07.079Z,36.60
2023-01-26T20:21:35.827Z,32.70
2023-01-26T20:24:06.390Z,40.50
2023-01-26T20:26:36.405Z,36.70
2023-01-26T20:29:05.237Z,37.70
2023-01-26T20:31:34.266Z,38.70
2023-01-26T20:34:04.524Z,37.50
2023-01-26T20:36:33.975Z,40.20
2023-01-26T20:39:02.816Z,46.10
2023-01-26T20:41:33.617Z,53.50
2023-01-26T20:44:06.978Z,46.30
2023-01-26T20:46:37.927Z,53.20
2023-01-26T20:49:08.892Z,54.20
2023-01-26T20:51:40.729Z,60.70
2023-01-26T20:54:12.266Z,55.40
2023-01-26T20:56:41.185Z,57.80
2023-01-26T20:59:10.839Z,55.80
2023-01-26T21:01:39.464Z,53.20
2023-01-26T21:04:07.696Z,59.30
2023-01-26T21:06:39.369Z,53.30
2023-01-26T21:09:12.677Z,65.70
2023-01-26T21:11:41.759Z,65.50
2023-01-26T21:14:11.714Z,77.80
2023-01-26T21:16:41.673Z,70.10
2023-01-26T21:19:10.168Z,70.50
2023-01-26T21:21:38.581Z,81.00
2023-01-26T21:24:07.378Z,74.70
2023-01-26T21:26:35.820Z,80.10
2023-01-26T21:29:07.832Z,77.40
2023-01-26T21:31:36.461Z,68.50
2023-01-26T21:34:05.221Z,63.30
2023-01-26T21:36:34.926Z,59.70
2023-01-26T21:39:03.810Z,63.00
2023-01-26T21:41:52.403Z,66.10
2023-01-26T21:44:58.947Z,62.90
2023-01-26T21:47:27.651Z,62.80
2023-01-26T21:49:58.820Z,66.00
2023-01-26T21:52:45.756Z,52.00
2023-01-26T21:55:14.505Z,44.20
2023-01-26T21:58:01.352Z,43.00
2023-01-26T22:00:31.698Z,46.40
2023-01-26T22:03:01.147Z,50.60
2023-01-26T22:05:29.739Z,54.10
2023-01-26T22:07:58.810Z,57.00
2023-01-26T22:10:29.083Z,56.40
2023-01-26T22:12:57.333Z,55.30
2023-01-26T22:15:26.200Z,59.00
2023-01-26T22:17:58.469Z,58.50
2023-01-26T22:20:27.296Z,54.60
2023-01-26T22:22:55.707Z,61.70
2023-01-26T22:25:24.914Z,64.90
2023-01-26T22:27:53.343Z,58.70
2023-01-26T22:30:21.756Z,60.00
2023-01-26T22:32:50.518Z,54.60
2023-01-26T22:35:19.274Z,49.30
2023-01-26T22:37:47.942Z,40.70
2023-01-26T22:40:16.750Z,44.70
2023-01-26T22:42:45.190Z,39.00
2023-01-26T22:45:14.246Z,37.10
2023-01-26T22:47:42.699Z,35.60
2023-01-26T22:50:11.909Z,36.50
2023-01-26T22:52:41.653Z,35.80
2023-01-26T22:55:10.322Z,37.20
2023-01-26T22:57:38.884Z,33.80
2023-01-26T23:00:08.294Z,30.40
2023-01-26T23:02:37.153Z,30.60
2023-01-26T23:05:06.249Z,28.40
2023-01-26T23:07:34.752Z,28.80
2023-01-26T23:10:03.528Z,29.90
2023-01-26T23:12:31.963Z,29.10
2023-01-26T23:15:00.890Z,26.90
2023-01-26T23:17:29.823Z,27.60
2023-01-26T23:19:59.307Z,27.00
2023-01-26T23:22:27.660Z,27.10
2023-01-26T23:25:15.135Z,32.10
2023-01-26T23:27:43.499Z,28.50
2023-01-26T23:30:13.094Z,30.40
2023-01-26T23:32:41.780Z,31.20
2023-01-26T23:35:10.102Z,40.10
2023-01-26T23:37:38.629Z,42.40
2023-01-26T23:40:07.832Z,43.80
2023-01-26T23:42:55.823Z,44.80
2023-01-26T23:45:24.854Z,48.90
2023-01-26T23:47:53.447Z,50.30
2023-01-26T23:50:21.979Z,49.70
2023-01-26T23:52:52.771Z,48.60
2023-01-26T23:55:21.215Z,48.70
2023-01-26T23:57:50.200Z,45.70
